sensor_id;sensor_type;location;lat;lon;timestamp;pressure;altitude;pressure_sealevel;temperature;humidity
2000;BME280;1001;48.87406500;9.59633600;2023-02-01T00:01:51;95615.50;;;2.65;100.00
2000;BME280;1001;48.87406500;9.59633600;2023-02-01T00:04:17;95617.78;;;2.60;100.00
2000;BME280;1001;48.87406500;9.59633600;2023-02-01T00:06:44;95602.75;;;2.63;100.00
2000;BME280;1001;48.87406500;9.59633600;2023-02-01T00:09:10;95603.06;;;2.68;100.00
2000;BME280;1001;48.87406500;9.59633600;2023-02-01T00:11:37;95612.25;;;2.71;100.00
2000;BME280;1001;48.87406500;9.59633600;2023-02-01T00:14:05;95606.44;;;2.69;100.00
2000;BME280;1001;48.87406500;9.59633600;2023-02-01T00:16:33;95599.19;;;2.64;100.00
2000;BME280;1001;48.87406500;9.59633600;2023-02-01T00:19:01;95599.66;;;2.68;100.00
2000;BME280;1001;48.87406500;9.59633600;2023-02-01T00:21:28;95587.88;;;2.65;100.00
2000;BME280;1001;48.87406500;9.59633600;2023-02-01T00:23:55;95579.69;;;2.62;100.00
2000;BME280;1001;48.87406500;9.59633600;2023-02-01T00:26:25;95591.59;;;2.63;100.00
2000;BME280;1001;48.87406500;9.59633600;2023-02-01T00:28:54;95594.03;;;2.64;100.00
2000;BME280;1001;48.87406500;9.59633600;2023-02-01T00:31:21;95585.78;;;2.69;100.00
2000;BME280;1001;48.87406500;9.59633600;2023-02-01T00:33:48;95580.31;;;2.64;100.00
2000;BME280;1001;48.87406500;9.59633600;2023-02-01T00:36:15;95587.09;;;2.65;100.00
2000;BME280;1001;48.87406500;9.59633600;2023-02-01T00:38:42;95588.53;;;2.67;100.00
2000;BME280;1001;48.87406500;9.59633600;2023-02-01T00:41:11;95595.47;;;2.67;100.00
2000;BME280;1001;48.87406500;9.59633600;2023-02-01T00:43:39;95586.59;;;2.69;100.00
2000;BME280;1001;48.87406500;9.59633600;2023-02-01T00:46:05;95587.75;;;2.67;100.00
2000;BME280;1001;48.87406500;9.59633600;2023-02-01T00:48:34;95577.41;;;2.67;100.00
2000;BME280;1001;48.87406500;9.59633600;2023-02-01T00:51:00;95577.75;;;2.64;100.00
2000;BME280;1001;48.87406500;9.59633600;2023-02-01T00:53:27;95572.56;;;2.64;100.00
2000;BME280;1001;48.87406500;9.59633600;2023-02-01T00:55:53;95547.91;;;2.61;100.00
2000;BME280;1001;48.87406500;9.59633600;2023-02-01T00:58:21;95563.38;;;2.61;100.00
2000;BME280;1001;48.87406500;9.59633600;2023-02-01T01:00:49;95558.56;;;2.58;100.00
2000;BME280;1001;48.87406500;9.59633600;2023-02-01T01:03:15;95556.78;;;2.59;100.00
2000;BME280;1001;48.87406500;9.59633600;2023-02-01T01:05:47;95552.44;;;2.59;100.00
2000;BME280;1001;48.87406500;9.59633600;2023-02-01T01:08:15;95546.28;;;2.60;100.00
2000;BME280;1001;48.87406500;9.59633600;2023-02-01T01:10:42;95544.50;;;2.61;100.00
2000;BME280;1001;48.87406500;9.59633600;2023-02-01T01:13:10;95543.22;;;2.65;100.00
2000;BME280;1001;48.87406500;9.59633600;2023-02-01T01:15:37;95532.22;;;2.63;100.00
2000;BME280;1001;48.87406500;9.59633600;2023-02-01T01:18:05;95536.13;;;2.59;100.00
2000;BME280;1001;48.87406500;9.59633600;2023-02-01T01:20:35;95548.38;;;2.65;100.00
2000;BME280;1001;48.87406500;9.59633600;2023-02-01T01:23:03;95544.69;;;2.59;100.00
2000;BME280;1001;48.87406500;9.59633600;2023-02-01T01:25:30;95541.94;;;2.61;100.00
2000;BME280;1001;48.87406500;9.59633600;2023-02-01T01:27:57;95547.56;;;2.64;100.00
2000;BME280;1001;48.87406500;9.59633600;2023-02-01T01:30:23;95548.38;;;2.65;100.00
2000;BME280;1001;48.87406500;9.59633600;2023-02-01T01:32:51;95540.78;;;2.63;100.00
2000;BME280;1001;48.87406500;9.59633600;2023-02-01T01:35:18;95548.03;;;2.68;100.00
2000;BME280;1001;48.87406500;9.59633600;2023-02-01T01:37:44;95556.41;;;2.70;100.00
2000;BME280;1001;48.87406500;9.59633600;2023-02-01T01:40:13;95553.81;;;2.70;100.00
2000;BME280;1001;48.87406500;9.59633600;2023-02-01T01:42:40;95555.88;;;2.74;100.00
2000;BME280;1001;48.87406500;9.59633600;2023-02-01T01:45:24;95558.13;;;2.78;100.00
2000;BME280;1001;48.87406500;9.59633600;2023-02-01T01:47:55;95545.22;;;2.78;100.00
2000;BME280;1001;48.87406500;9.59633600;2023-02-01T01:50:25;95553.50;;;2.73;100.00
2000;BME280;1001;48.87406500;9.59633600;2023-02-01T01:52:54;95550.72;;;2.74;100.00
2000;BME280;1001;48.87406500;9.59633600;2023-02-01T01:55:25;95547.19;;;2.75;100.00
2000;BME280;1001;48.87406500;9.59633600;2023-02-01T01:57:55;95536.69;;;2.77;100.00
2000;BME280;1001;48.87406500;9.59633600;2023-02-01T02:00:24;95540.53;;;2.81;100.00
2000;BME280;1001;48.87406500;9.59633600;2023-02-01T02:02:55;95527.03;;;2.71;100.00
2000;BME280;1001;48.87406500;9.59633600;2023-02-01T02:05:24;95537.34;;;2.79;100.00
2000;BME280;1001;48.87406500;9.59633600;2023-02-01T02:07:52;95523.75;;;2.77;100.00
2000;BME280;1001;48.87406500;9.59633600;2023-02-01T02:10:20;95523.13;;;2.75;100.00
2000;BME280;1001;48.87406500;9.59633600;2023-02-01T02:13:08;95514.13;;;2.71;100.00
2000;BME280;1001;48.87406500;9.59633600;2023-02-01T02:15:37;95520.56;;;2.75;100.00
2000;BME280;1001;48.87406500;9.59633600;2023-02-01T02:18:13;95514.44;;;2.76;100.00
2000;BME280;1001;48.87406500;9.59633600;2023-02-01T02:21:09;95515.88;;;2.79;100.00
2000;BME280;1001;48.87406500;9.59633600;2023-02-01T02:24:07;95508.28;;;2.77;100.00
2000;BME280;1001;48.87406500;9.59633600;2023-02-01T02:27:05;95517.97;;;2.75;100.00
2000;BME280;1001;48.87406500;9.59633600;2023-02-01T02:36:00;95517.16;;;2.74;100.00
2000;BME280;1001;48.87406500;9.59633600;2023-02-01T02:38:33;95504.13;;;2.68;100.00
2000;BME280;1001;48.87406500;9.59633600;2023-02-01T02:41:09;95498.00;;;2.69;100.00
2000;BME280;1001;48.87406500;9.59633600;2023-02-01T02:44:05;95499.28;;;2.73;100.00
2000;BME280;1001;48.87406500;9.59633600;2023-02-01T02:46:52;95500.59;;;2.69;100.00
2000;BME280;1001;48.87406500;9.59633600;2023-02-01T02:49:43;95505.56;;;2.70;100.00
2000;BME280;1001;48.87406500;9.59633600;2023-02-01T02:52:36;95501.41;;;2.69;100.00
2000;BME280;1001;48.87406500;9.59633600;2023-02-01T02:55:26;95494.44;;;2.70;100.00
2000;BME280;1001;48.87406500;9.59633600;2023-02-01T02:57:54;95495.75;;;2.66;100.00
2000;BME280;1001;48.87406500;9.59633600;2023-02-01T03:00:40;95473.66;;;2.63;100.00
2000;BME280;1001;48.87406500;9.59633600;2023-02-01T03:03:25;95484.00;;;2.63;100.00
2000;BME280;1001;48.87406500;9.59633600;2023-02-01T03:06:13;95483.03;;;2.64;100.00
2000;BME280;1001;48.87406500;9.59633600;2023-02-01T03:08:41;95486.25;;;2.66;100.00
2000;BME280;1001;48.87406500;9.59633600;2023-02-01T03:11:12;95474.66;;;2.62;100.00
2000;BME280;1001;48.87406500;9.59633600;2023-02-01T03:13:44;95465.78;;;2.65;100.00
2000;BME280;1001;48.87406500;9.59633600;2023-02-01T03:16:15;95464.59;;;2.67;100.00
2000;BME280;1001;48.87406500;9.59633600;2023-02-01T03:18:48;95469.44;;;2.70;100.00
2000;BME280;1001;48.87406500;9.59633600;2023-02-01T03:21:24;95465.88;;;2.71;100.00
2000;BME280;1001;48.87406500;9.59633600;2023-02-01T03:23:53;95464.44;;;2.69;100.00
2000;BME280;1001;48.87406500;9.59633600;2023-02-01T03:26:24;95479.75;;;2.70;100.00
2000;BME280;1001;48.87406500;9.59633600;2023-02-01T03:28:56;95461.88;;;2.69;100.00
2000;BME280;1001;48.87406500;9.59633600;2023-02-01T03:31:24;95463.13;;;2.73;100.00
2000;BME280;1001;48.87406500;9.59633600;2023-02-01T03:33:50;95456.19;;;2.73;100.00
2000;BME280;1001;48.87406500;9.59633600;2023-02-01T03:36:25;95457.63;;;2.76;100.00
2000;BME280;1001;48.87406500;9.59633600;2023-02-01T03:38:58;95455.34;;;2.81;100.00
2000;BME280;1001;48.87406500;9.59633600;2023-02-01T03:41:32;95447.75;;;2.80;100.00
2000;BME280;1001;48.87406500;9.59633600;2023-02-01T03:44:06;95451.47;;;2.77;100.00
2000;BME280;1001;48.87406500;9.59633600;2023-02-01T03:46:39;95462.28;;;2.81;100.00
2000;BME280;1001;48.87406500;9.59633600;2023-02-01T03:49:10;95470.97;;;2.80;100.00
2000;BME280;1001;48.87406500;9.59633600;2023-02-01T03:51:40;95459.50;;;2.82;100.00
2000;BME280;1001;48.87406500;9.59633600;2023-02-01T03:54:10;95467.97;;;2.76;100.00
2000;BME280;1001;48.87406500;9.59633600;2023-02-01T03:56:41;95461.81;;;2.77;100.00
2000;BME280;1001;48.87406500;9.59633600;2023-02-01T03:59:09;95465.38;;;2.76;100.00
2000;BME280;1001;48.87406500;9.59633600;2023-02-01T04:01:36;95470.66;;;2.83;100.00
2000;BME280;1001;48.87406500;9.59633600;2023-02-01T04:04:03;95464.56;;;2.75;100.00
2000;BME280;1001;48.87406500;9.59633600;2023-02-01T04:06:30;95460.84;;;2.78;100.00
2000;BME280;1001;48.87406500;9.59633600;2023-02-01T04:08:57;95474.72;;;2.77;100.00
2000;BME280;1001;48.87406500;9.59633600;2023-02-01T04:11:24;95477.94;;;2.79;100.00
2000;BME280;1001;48.87406500;9.59633600;2023-02-01T04:13:52;95481.28;;;2.88;100.00
2000;BME280;1001;48.87406500;9.59633600;2023-02-01T04:16:19;95469.84;;;2.82;100.00
2000;BME280;1001;48.87406500;9.59633600;2023-02-01T04:18:45;95471.28;;;2.85;100.00
2000;BME280;1001;48.87406500;9.59633600;2023-02-01T04:21:12;95463.09;;;2.81;100.00
2000;BME280;1001;48.87406500;9.59633600;2023-02-01T04:23:38;95433.53;;;2.84;100.00
2000;BME280;1001;48.87406500;9.59633600;2023-02-01T04:26:06;95425.78;;;2.84;100.00
2000;BME280;1001;48.87406500;9.59633600;2023-02-01T04:28:33;95442.06;;;2.84;100.00
2000;BME280;1001;48.87406500;9.59633600;2023-02-01T04:30:59;95447.41;;;2.83;100.00
2000;BME280;1001;48.87406500;9.59633600;2023-02-01T04:33:26;95460.78;;;2.86;100.00
2000;BME280;1001;48.87406500;9.59633600;2023-02-01T04:35:53;95468.81;;;2.91;100.00
2000;BME280;1001;48.87406500;9.59633600;2023-02-01T04:38:19;95468.66;;;2.93;100.00
2000;BME280;1001;48.87406500;9.59633600;2023-02-01T04:40:47;95477.34;;;2.92;100.00
2000;BME280;1001;48.87406500;9.59633600;2023-02-01T04:43:16;95468.31;;;2.96;100.00
2000;BME280;1001;48.87406500;9.59633600;2023-02-01T04:45:46;95467.31;;;2.97;100.00
2000;BME280;1001;48.87406500;9.59633600;2023-02-01T04:48:14;95466.97;;;3.00;100.00
2000;BME280;1001;48.87406500;9.59633600;2023-02-01T04:50:40;95449.25;;;2.97;100.00
2000;BME280;1001;48.87406500;9.59633600;2023-02-01T04:53:07;95453.88;;;3.01;100.00
2000;BME280;1001;48.87406500;9.59633600;2023-02-01T04:55:34;95449.97;;;3.05;100.00
2000;BME280;1001;48.87406500;9.59633600;2023-02-01T04:58:00;95460.94;;;3.07;100.00
2000;BME280;1001;48.87406500;9.59633600;2023-02-01T05:00:28;95461.56;;;3.09;100.00
2000;BME280;1001;48.87406500;9.59633600;2023-02-01T05:02:55;95465.59;;;3.12;100.00
2000;BME280;1001;48.87406500;9.59633600;2023-02-01T05:05:21;95465.41;;;3.13;100.00
2000;BME280;1001;48.87406500;9.59633600;2023-02-01T05:07:48;95457.38;;;3.08;100.00
2000;BME280;1001;48.87406500;9.59633600;2023-02-01T05:10:15;95462.50;;;3.16;100.00
2000;BME280;1001;48.87406500;9.59633600;2023-02-01T05:12:43;95463.53;;;3.07;100.00
2000;BME280;1001;48.87406500;9.59633600;2023-02-01T05:15:28;95453.81;;;3.09;100.00
2000;BME280;1001;48.87406500;9.59633600;2023-02-01T05:17:55;95456.50;;;3.16;100.00
2000;BME280;1001;48.87406500;9.59633600;2023-02-01T05:20:22;95462.72;;;3.07;100.00
2000;BME280;1001;48.87406500;9.59633600;2023-02-01T05:22:49;95454.63;;;3.10;100.00
2000;BME280;1001;48.87406500;9.59633600;2023-02-01T05:25:15;95453.50;;;3.12;100.00
2000;BME280;1001;48.87406500;9.59633600;2023-02-01T05:27:42;95456.41;;;3.09;100.00
2000;BME280;1001;48.87406500;9.59633600;2023-02-01T05:30:10;95455.59;;;3.09;100.00
2000;BME280;1001;48.87406500;9.59633600;2023-02-01T05:32:38;95462.38;;;3.10;100.00
2000;BME280;1001;48.87406500;9.59633600;2023-02-01T05:35:05;95462.38;;;3.10;100.00
2000;BME280;1001;48.87406500;9.59633600;2023-02-01T05:37:32;95449.47;;;3.10;100.00
2000;BME280;1001;48.87406500;9.59633600;2023-02-01T05:39:58;95461.41;;;3.11;100.00
2000;BME280;1001;48.87406500;9.59633600;2023-02-01T05:42:25;95448.66;;;3.09;100.00
2000;BME280;1001;48.87406500;9.59633600;2023-02-01T05:44:52;95453.66;;;3.11;100.00
2000;BME280;1001;48.87406500;9.59633600;2023-02-01T05:47:18;95457.03;;;3.11;100.00
2000;BME280;1001;48.87406500;9.59633600;2023-02-01T05:49:47;95459.63;;;3.11;100.00
2000;BME280;1001;48.87406500;9.59633600;2023-02-01T05:52:13;95449.28;;;3.11;100.00
2000;BME280;1001;48.87406500;9.59633600;2023-02-01T05:54:44;95458.81;;;3.11;100.00
2000;BME280;1001;48.87406500;9.59633600;2023-02-01T05:57:11;95463.16;;;3.10;100.00
2000;BME280;1001;48.87406500;9.59633600;2023-02-01T05:59:38;95461.06;;;3.14;100.00
2000;BME280;1001;48.87406500;9.59633600;2023-02-01T06:02:06;95459.09;;;3.16;100.00
2000;BME280;1001;48.87406500;9.59633600;2023-02-01T06:04:33;95464.44;;;3.14;100.00
2000;BME280;1001;48.87406500;9.59633600;2023-02-01T06:07:01;95459.91;;;3.16;100.00
2000;BME280;1001;48.87406500;9.59633600;2023-02-01T06:09:27;95466.56;;;3.11;100.00
2000;BME280;1001;48.87406500;9.59633600;2023-02-01T06:11:54;95462.50;;;3.16;100.00
2000;BME280;1001;48.87406500;9.59633600;2023-02-01T06:14:21;95458.28;;;3.15;100.00
2000;BME280;1001;48.87406500;9.59633600;2023-02-01T06:16:47;95461.50;;;3.17;100.00
2000;BME280;1001;48.87406500;9.59633600;2023-02-01T06:19:14;95465.69;;;3.18;100.00
2000;BME280;1001;48.87406500;9.59633600;2023-02-01T06:21:40;95464.72;;;3.19;100.00
2000;BME280;1001;48.87406500;9.59633600;2023-02-01T06:24:08;95471.69;;;3.19;100.00
2000;BME280;1001;48.87406500;9.59633600;2023-02-01T06:26:35;95472.47;;;3.19;100.00
2000;BME280;1001;48.87406500;9.59633600;2023-02-01T06:29:02;95472.28;;;3.21;100.00
2000;BME280;1001;48.87406500;9.59633600;2023-02-01T06:31:29;95479.25;;;3.20;100.00
2000;BME280;1001;48.87406500;9.59633600;2023-02-01T06:33:57;95471.97;;;3.24;100.00
2000;BME280;1001;48.87406500;9.59633600;2023-02-01T06:36:23;95468.09;;;3.20;100.00
2000;BME280;1001;48.87406500;9.59633600;2023-02-01T06:38:50;95464.34;;;3.22;100.00
2000;BME280;1001;48.87406500;9.59633600;2023-02-01T06:41:18;95471.19;;;3.15;100.00
2000;BME280;1001;48.87406500;9.59633600;2023-02-01T06:43:46;95462.50;;;3.16;100.00
2000;BME280;1001;48.87406500;9.59633600;2023-02-01T06:46:13;95459.28;;;3.14;100.00
2000;BME280;1001;48.87406500;9.59633600;2023-02-01T06:48:40;95467.19;;;3.13;100.00
2000;BME280;1001;48.87406500;9.59633600;2023-02-01T06:51:18;95471.63;;;3.04;100.00
2000;BME280;1001;48.87406500;9.59633600;2023-02-01T06:53:45;95470.19;;;3.02;100.00
2000;BME280;1001;48.87406500;9.59633600;2023-02-01T06:56:11;95475.78;;;3.05;100.00
2000;BME280;1001;48.87406500;9.59633600;2023-02-01T06:58:39;95484.53;;;3.04;100.00
2000;BME280;1001;48.87406500;9.59633600;2023-02-01T07:01:06;95487.31;;;3.03;100.00
2000;BME280;1001;48.87406500;9.59633600;2023-02-01T07:03:33;95495.84;;;3.03;100.00
2000;BME280;1001;48.87406500;9.59633600;2023-02-01T07:06:00;95487.78;;;2.98;100.00
2000;BME280;1001;48.87406500;9.59633600;2023-02-01T07:08:27;95492.97;;;2.98;100.00
2000;BME280;1001;48.87406500;9.59633600;2023-02-01T07:10:54;95497.16;;;2.99;100.00
2000;BME280;1001;48.87406500;9.59633600;2023-02-01T07:13:21;95503.94;;;3.00;100.00
2000;BME280;1001;48.87406500;9.59633600;2023-02-01T07:15:48;95498.09;;;3.06;100.00
2000;BME280;1001;48.87406500;9.59633600;2023-02-01T07:18:15;95505.88;;;2.98;100.00
2000;BME280;1001;48.87406500;9.59633600;2023-02-01T07:20:42;95506.53;;;3.00;100.00
2000;BME280;1001;48.87406500;9.59633600;2023-02-01T07:23:10;95526.84;;;3.03;100.00
2000;BME280;1001;48.87406500;9.59633600;2023-02-01T07:25:36;95527.94;;;3.09;100.00
2000;BME280;1001;48.87406500;9.59633600;2023-02-01T07:28:03;95528.13;;;3.07;100.00
2000;BME280;1001;48.87406500;9.59633600;2023-02-01T07:30:30;95523.09;;;3.06;100.00
2000;BME280;1001;48.87406500;9.59633600;2023-02-01T07:32:57;95525.56;;;2.99;100.00
2000;BME280;1001;48.87406500;9.59633600;2023-02-01T07:35:26;95533.31;;;2.99;100.00
2000;BME280;1001;48.87406500;9.59633600;2023-02-01T07:37:53;95530.41;;;3.02;100.00
2000;BME280;1001;48.87406500;9.59633600;2023-02-01T07:40:19;95533.28;;;3.07;100.00
2000;BME280;1001;48.87406500;9.59633600;2023-02-01T07:42:53;95529.72;;;3.08;100.00
2000;BME280;1001;48.87406500;9.59633600;2023-02-01T07:45:20;95523.25;;;3.12;100.00
2000;BME280;1001;48.87406500;9.59633600;2023-02-01T07:47:47;95526.50;;;3.06;100.00
2000;BME280;1001;48.87406500;9.59633600;2023-02-01T07:50:15;95532.91;;;3.10;100.00
2000;BME280;1001;48.87406500;9.59633600;2023-02-01T07:52:42;95521.97;;;3.08;100.00
2000;BME280;1001;48.87406500;9.59633600;2023-02-01T07:55:09;95537.78;;;3.05;100.00
2000;BME280;1001;48.87406500;9.59633600;2023-02-01T07:57:35;95535.88;;;3.07;100.00
2000;BME280;1001;48.87406500;9.59633600;2023-02-01T08:00:03;95530.03;;;3.05;100.00
2000;BME280;1001;48.87406500;9.59633600;2023-02-01T08:02:47;95533.00;;;3.02;100.00
2000;BME280;1001;48.87406500;9.59633600;2023-02-01T08:05:15;95518.16;;;2.96;100.00
2000;BME280;1001;48.87406500;9.59633600;2023-02-01T08:07:42;95526.19;;;3.01;100.00
2000;BME280;1001;48.87406500;9.59633600;2023-02-01T08:10:09;95513.28;;;3.01;100.00
2000;BME280;1001;48.87406500;9.59633600;2023-02-01T08:12:37;95510.06;;;2.99;100.00
2000;BME280;1001;48.87406500;9.59633600;2023-02-01T08:15:04;95517.19;;;2.97;100.00
2000;BME280;1001;48.87406500;9.59633600;2023-02-01T08:17:31;95503.28;;;2.98;100.00
2000;BME280;1001;48.87406500;9.59633600;2023-02-01T08:19:57;95499.75;;;2.99;100.00
2000;BME280;1001;48.87406500;9.59633600;2023-02-01T08:22:25;95509.28;;;2.99;100.00
2000;BME280;1001;48.87406500;9.59633600;2023-02-01T08:24:52;95498.94;;;2.99;100.00
2000;BME280;1001;48.87406500;9.59633600;2023-02-01T08:27:26;95504.28;;;2.97;100.00
2000;BME280;1001;48.87406500;9.59633600;2023-02-01T08:29:52;95511.69;;;3.00;100.00
2000;BME280;1001;48.87406500;9.59633600;2023-02-01T08:32:19;95512.47;;;3.01;100.00
2000;BME280;1001;48.87406500;9.59633600;2023-02-01T08:34:46;95522.19;;;2.99;100.00
2000;BME280;1001;48.87406500;9.59633600;2023-02-01T08:37:12;95536.53;;;3.01;100.00
2000;BME280;1001;48.87406500;9.59633600;2023-02-01T08:39:40;95528.50;;;2.96;100.00
2000;BME280;1001;48.87406500;9.59633600;2023-02-01T08:42:08;95528.78;;;3.01;100.00
2000;BME280;1001;48.87406500;9.59633600;2023-02-01T08:44:52;95528.78;;;3.01;100.00
2000;BME280;1001;48.87406500;9.59633600;2023-02-01T08:47:19;95528.13;;;3.07;100.00
2000;BME280;1001;48.87406500;9.59633600;2023-02-01T08:49:45;95520.38;;;3.07;100.00
2000;BME280;1001;48.87406500;9.59633600;2023-02-01T08:52:12;95531.66;;;3.06;100.00
2000;BME280;1001;48.87406500;9.59633600;2023-02-01T08:54:39;95532.59;;;3.13;100.00
2000;BME280;1001;48.87406500;9.59633600;2023-02-01T08:57:08;95531.25;;;3.17;100.00
2000;BME280;1001;48.87406500;9.59633600;2023-02-01T08:59:35;95542.69;;;3.23;100.00
2000;BME280;1001;48.87406500;9.59633600;2023-02-01T09:02:02;95534.41;;;3.27;100.00
2000;BME280;1001;48.87406500;9.59633600;2023-02-01T09:04:29;95536.56;;;3.24;100.00
2000;BME280;1001;48.87406500;9.59633600;2023-02-01T09:06:55;95541.19;;;3.28;100.00
2000;BME280;1001;48.87406500;9.59633600;2023-02-01T09:09:22;95539.06;;;3.32;100.00
2000;BME280;1001;48.87406500;9.59633600;2023-02-01T09:11:48;95535.00;;;3.37;100.00
2000;BME280;1001;48.87406500;9.59633600;2023-02-01T09:14:17;95543.19;;;3.41;100.00
2000;BME280;1001;48.87406500;9.59633600;2023-02-01T09:16:43;95536.72;;;3.45;100.00
2000;BME280;1001;48.87406500;9.59633600;2023-02-01T09:19:10;95539.00;;;3.40;100.00
2000;BME280;1001;48.87406500;9.59633600;2023-02-01T09:21:36;95535.28;;;3.42;100.00
2000;BME280;1001;48.87406500;9.59633600;2023-02-01T09:24:03;95536.19;;;3.50;100.00
2000;BME280;1001;48.87406500;9.59633600;2023-02-01T09:26:30;95518.09;;;3.50;100.00
2000;BME280;1001;48.87406500;9.59633600;2023-02-01T09:28:56;95531.75;;;3.58;100.00
2000;BME280;1001;48.87406500;9.59633600;2023-02-01T09:31:24;95534.94;;;3.60;100.00
2000;BME280;1001;48.87406500;9.59633600;2023-02-01T09:33:51;95531.56;;;3.60;100.00
2000;BME280;1001;48.87406500;9.59633600;2023-02-01T09:36:18;95543.44;;;3.69;100.00
2000;BME280;1001;48.87406500;9.59633600;2023-02-01T09:38:45;95547.56;;;3.78;100.00
2000;BME280;1001;48.87406500;9.59633600;2023-02-01T09:41:25;95544.53;;;3.89;100.00
2000;BME280;1001;48.87406500;9.59633600;2023-02-01T09:43:57;95552.16;;;3.90;100.00
2000;BME280;1001;48.87406500;9.59633600;2023-02-01T09:46:32;95544.75;;;4.02;100.00
2000;BME280;1001;48.87406500;9.59633600;2023-02-01T09:49:03;95549.56;;;4.05;100.00
2000;BME280;1001;48.87406500;9.59633600;2023-02-01T09:51:33;95558.69;;;4.16;100.00
2000;BME280;1001;48.87406500;9.59633600;2023-02-01T09:54:04;95566.78;;;4.12;100.00
2000;BME280;1001;48.87406500;9.59633600;2023-02-01T09:56:36;95566.34;;;4.09;100.00
2000;BME280;1001;48.87406500;9.59633600;2023-02-01T09:59:13;95565.34;;;4.10;100.00
2000;BME280;1001;48.87406500;9.59633600;2023-02-01T10:01:46;95576.56;;;4.02;100.00
2000;BME280;1001;48.87406500;9.59633600;2023-02-01T10:04:14;95571.94;;;3.98;100.00
2000;BME280;1001;48.87406500;9.59633600;2023-02-01T10:06:57;95564.72;;;3.93;100.00
2000;BME280;1001;48.87406500;9.59633600;2023-02-01T10:09:42;95575.44;;;3.90;100.00
2000;BME280;1001;48.87406500;9.59633600;2023-02-01T10:15:21;95569.72;;;3.95;100.00
2000;BME280;1001;48.87406500;9.59633600;2023-02-01T10:18:04;95568.38;;;3.99;100.00
2000;BME280;1001;48.87406500;9.59633600;2023-02-01T10:20:45;95580.22;;;3.93;100.00
2000;BME280;1001;48.87406500;9.59633600;2023-02-01T10:23:30;95590.31;;;4.03;100.00
2000;BME280;1001;48.87406500;9.59633600;2023-02-01T10:26:03;95581.06;;;4.08;100.00
2000;BME280;1001;48.87406500;9.59633600;2023-02-01T10:28:34;95594.16;;;4.07;100.00
2000;BME280;1001;48.87406500;9.59633600;2023-02-01T10:31:02;95590.69;;;4.14;100.00
2000;BME280;1001;48.87406500;9.59633600;2023-02-01T10:33:34;95585.97;;;4.18;100.00
2000;BME280;1001;48.87406500;9.59633600;2023-02-01T10:36:05;95591.78;;;4.20;100.00
2000;BME280;1001;48.87406500;9.59633600;2023-02-01T10:38:36;95584.63;;;4.22;100.00
2000;BME280;1001;48.87406500;9.59633600;2023-02-01T10:41:08;95589.53;;;4.17;100.00
2000;BME280;1001;48.87406500;9.59633600;2023-02-01T10:43:38;95590.00;;;4.21;100.00
2000;BME280;1001;48.87406500;9.59633600;2023-02-01T10:46:06;95588.47;;;4.26;100.00
2000;BME280;1001;48.87406500;9.59633600;2023-02-01T10:48:35;95599.19;;;4.23;100.00
2000;BME280;1001;48.87406500;9.59633600;2023-02-01T10:51:05;95599.81;;;4.25;99.42
2000;BME280;1001;48.87406500;9.59633600;2023-02-01T10:53:36;95600.16;;;4.22;98.84
2000;BME280;1001;48.87406500;9.59633600;2023-02-01T10:56:09;95586.88;;;4.25;97.50
2000;BME280;1001;48.87406500;9.59633600;2023-02-01T10:58:43;95579.38;;;4.30;98.18
2000;BME280;1001;48.87406500;9.59633600;2023-02-01T11:01:16;95578.13;;;4.41;97.72
2000;BME280;1001;48.87406500;9.59633600;2023-02-01T11:03:52;95592.84;;;4.40;96.49
2000;BME280;1001;48.87406500;9.59633600;2023-02-01T11:06:26;95584.09;;;4.27;96.56
2000;BME280;1001;48.87406500;9.59633600;2023-02-01T11:08:54;95582.25;;;4.21;97.21
2000;BME280;1001;48.87406500;9.59633600;2023-02-01T11:11:22;95588.38;;;4.20;97.83
2000;BME280;1001;48.87406500;9.59633600;2023-02-01T11:13:55;95580.63;;;4.20;98.12
2000;BME280;1001;48.87406500;9.59633600;2023-02-01T11:16:28;95585.97;;;4.18;98.46
2000;BME280;1001;48.87406500;9.59633600;2023-02-01T11:18:58;95582.78;;;4.16;98.47
2000;BME280;1001;48.87406500;9.59633600;2023-02-01T11:21:25;95575.16;;;4.14;98.73
2000;BME280;1001;48.87406500;9.59633600;2023-02-01T11:23:52;95579.91;;;4.11;98.73
2000;BME280;1001;48.87406500;9.59633600;2023-02-01T11:26:23;95586.88;;;4.10;98.67
2000;BME280;1001;48.87406500;9.59633600;2023-02-01T11:28:54;95584.63;;;4.07;98.14
2000;BME280;1001;48.87406500;9.59633600;2023-02-01T11:31:24;95575.88;;;4.08;98.72
2000;BME280;1001;48.87406500;9.59633600;2023-02-01T11:33:55;95577.03;;;4.06;98.19
2000;BME280;1001;48.87406500;9.59633600;2023-02-01T11:36:27;95569.63;;;4.03;98.44
2000;BME280;1001;48.87406500;9.59633600;2023-02-01T11:39:08;95565.97;;;3.97;97.39
2000;BME280;1001;48.87406500;9.59633600;2023-02-01T11:41:41;95548.03;;;3.96;97.84
2000;BME280;1001;48.87406500;9.59633600;2023-02-01T11:44:20;95559.38;;;4.09;97.48
2000;BME280;1001;48.87406500;9.59633600;2023-02-01T11:46:47;95560.03;;;4.11;96.29
2000;BME280;1001;48.87406500;9.59633600;2023-02-01T11:49:20;95560.19;;;4.25;96.59
2000;BME280;1001;48.87406500;9.59633600;2023-02-01T11:51:56;95549.28;;;4.29;94.93
2000;BME280;1001;48.87406500;9.59633600;2023-02-01T11:54:41;95539.94;;;4.28;94.60
2000;BME280;1001;48.87406500;9.59633600;2023-02-01T11:57:29;95550.47;;;4.27;95.46
2000;BME280;1001;48.87406500;9.59633600;2023-02-01T12:00:31;95528.59;;;4.14;94.65
2000;BME280;1001;48.87406500;9.59633600;2023-02-01T12:05:55;95521.00;;;4.13;93.70
2000;BME280;1001;48.87406500;9.59633600;2023-02-01T12:08:38;95535.03;;;4.19;94.90
2000;BME280;1001;48.87406500;9.59633600;2023-02-01T12:11:25;95526.53;;;4.25;93.71
2000;BME280;1001;48.87406500;9.59633600;2023-02-01T12:14:02;95526.34;;;4.26;93.21